createdAt,value
2023-05-19T00:00:57.354Z,0
2023-05-19T00:02:13.592Z,0
2023-05-19T00:03:29.849Z,0
2023-05-19T00:04:46.086Z,0
2023-05-19T00:06:02.344Z,0
2023-05-19T00:07:18.593Z,0
2023-05-19T00:08:34.843Z,0
2023-05-19T00:09:51.087Z,0
2023-05-19T00:11:07.330Z,0
2023-05-19T00:12:22.650Z,0
2023-05-19T00:13:38.890Z,0
2023-05-19T00:14:55.141Z,0
2023-05-19T00:16:11.386Z,0
2023-05-19T00:17:27.632Z,0
2023-05-19T00:18:43.883Z,0
2023-05-19T00:20:00.144Z,0
2023-05-19T00:21:16.382Z,0
2023-05-19T00:22:32.635Z,0
2023-05-19T00:23:48.882Z,0
2023-05-19T00:25:05.132Z,0
2023-05-19T00:26:21.373Z,0
2023-05-19T00:27:37.625Z,0
2023-05-19T00:28:52.935Z,0
2023-05-19T00:30:09.180Z,0
2023-05-19T00:31:25.435Z,0
2023-05-19T00:32:41.676Z,0
2023-05-19T00:33:57.936Z,0
2023-05-19T00:35:14.176Z,0
2023-05-19T00:36:30.424Z,0
2023-05-19T00:37:46.669Z,0
2023-05-19T00:39:02.928Z,0
2023-05-19T00:40:19.169Z,0
2023-05-19T00:41:35.424Z,0
2023-05-19T00:42:51.686Z,0
2023-05-19T00:44:07.918Z,0
2023-05-19T00:45:23.225Z,0
2023-05-19T00:46:39.466Z,0
2023-05-19T00:47:55.717Z,0
2023-05-19T00:49:11.974Z,0
2023-05-19T00:50:28.212Z,0
2023-05-19T00:51:44.464Z,0
2023-05-19T00:53:00.720Z,0
2023-05-19T00:54:16.972Z,0
2023-05-19T00:55:33.218Z,0
2023-05-19T00:56:49.456Z,0
2023-05-19T00:58:05.712Z,0
2023-05-19T00:59:21.962Z,0
2023-05-19T01:00:38.215Z,0
2023-05-19T01:01:53.516Z,0
2023-05-19T01:03:09.765Z,0
2023-05-19T01:04:26.008Z,0
2023-05-19T01:05:36.000Z,0
2023-05-19T01:06:58.509Z,0
2023-05-19T01:08:14.753Z,0
2023-05-19T01:09:31.005Z,0
2023-05-19T01:10:47.249Z,0
2023-05-19T01:12:03.504Z,0
2023-05-19T01:13:19.746Z,0
2023-05-19T01:14:35.997Z,0
2023-05-19T01:15:46.000Z,0
2023-05-19T01:17:08.495Z,0
2023-05-19T01:18:18.000Z,0
2023-05-19T01:19:40.053Z,0
2023-05-19T01:20:50.000Z,0
2023-05-19T01:22:12.547Z,0
2023-05-19T01:23:23.000Z,0
2023-05-19T01:24:45.047Z,0
2023-05-19T01:26:01.295Z,0
2023-05-19T01:27:17.547Z,0
2023-05-19T01:28:33.789Z,0
2023-05-19T01:29:50.034Z,0
2023-05-19T01:31:06.287Z,0
2023-05-19T01:32:22.535Z,0
2023-05-19T01:33:38.800Z,0
2023-05-19T01:34:54.097Z,0
2023-05-19T01:36:10.340Z,0
2023-05-19T01:37:26.587Z,0
2023-05-19T01:38:42.837Z,0
2023-05-19T01:39:59.095Z,0
2023-05-19T01:41:09.000Z,0
2023-05-19T01:42:31.583Z,0
2023-05-19T01:43:47.840Z,0
2023-05-19T01:45:04.091Z,0
2023-05-19T01:46:20.343Z,0
2023-05-19T01:47:36.583Z,0
2023-05-19T01:48:52.829Z,0
2023-05-19T01:50:09.078Z,0
2023-05-19T01:51:24.389Z,0
2023-05-19T01:52:40.639Z,0
2023-05-19T01:53:56.890Z,0
2023-05-19T01:55:13.137Z,0
2023-05-19T01:56:29.395Z,0
2023-05-19T01:57:45.630Z,0
2023-05-19T01:59:01.880Z,0
2023-05-19T02:00:18.125Z,0
2023-05-19T02:01:34.383Z,0
2023-05-19T02:02:50.645Z,0
2023-05-19T02:04:06.871Z,0
2023-05-19T02:05:23.123Z,0
2023-05-19T02:06:33.000Z,0
2023-05-19T02:07:49.000Z,0
2023-05-19T02:09:10.929Z,0
2023-05-19T02:10:27.179Z,0
2023-05-19T02:11:43.426Z,0
2023-05-19T02:12:59.672Z,0
2023-05-19T02:14:15.941Z,0
2023-05-19T02:15:32.175Z,0
2023-05-19T02:16:48.427Z,0
2023-05-19T02:18:04.671Z,0
2023-05-19T02:19:20.914Z,0
2023-05-19T02:20:37.167Z,0
2023-05-19T02:21:53.415Z,0
2023-05-19T02:23:09.669Z,0
2023-05-19T02:24:24.978Z,0
2023-05-19T02:25:41.227Z,0
2023-05-19T02:26:57.469Z,0
2023-05-19T02:28:13.722Z,0
2023-05-19T02:29:29.971Z,0
2023-05-19T02:30:46.219Z,0
2023-05-19T02:32:02.460Z,0
2023-05-19T02:33:18.717Z,0
2023-05-19T02:34:34.961Z,0
2023-05-19T02:35:51.211Z,0
2023-05-19T02:37:07.463Z,0
2023-05-19T02:38:18.000Z,0
2023-05-19T02:39:39.959Z,0
2023-05-19T02:40:55.275Z,0
2023-05-19T02:42:11.520Z,0
2023-05-19T02:43:27.761Z,0
2023-05-19T02:44:44.018Z,0
2023-05-19T02:46:00.268Z,0
2023-05-19T02:47:16.517Z,0
2023-05-19T02:48:32.763Z,0
2023-05-19T02:49:49.011Z,0
2023-05-19T02:51:05.263Z,0
2023-05-19T02:52:21.516Z,0
2023-05-19T02:53:37.764Z,0
2023-05-19T02:54:54.012Z,4
2023-05-19T02:56:10.258Z,4
2023-05-19T02:57:25.562Z,4
2023-05-19T02:58:36.000Z,0
2023-05-19T02:59:52.000Z,4
2023-05-19T03:01:14.314Z,4
2023-05-19T03:02:30.560Z,4
2023-05-19T03:03:46.813Z,8
2023-05-19T03:05:03.061Z,8
2023-05-19T03:06:19.310Z,12
2023-05-19T03:07:35.555Z,12
2023-05-19T03:08:51.804Z,12
2023-05-19T03:10:08.049Z,16
2023-05-19T03:11:24.303Z,16
2023-05-19T03:12:40.544Z,24
2023-05-19T03:13:55.861Z,24
2023-05-19T03:15:12.103Z,32
2023-05-19T03:16:28.354Z,36
2023-05-19T03:17:44.607Z,44
2023-05-19T03:19:00.852Z,56
2023-05-19T03:20:17.101Z,64
2023-05-19T03:21:32.417Z,80
2023-05-19T03:22:48.670Z,92
2023-05-19T03:24:04.919Z,108
2023-05-19T03:25:21.162Z,124
2023-05-19T03:26:37.420Z,144
2023-05-19T03:27:53.667Z,164
2023-05-19T03:29:09.912Z,188
2023-05-19T03:30:26.165Z,220
2023-05-19T03:31:42.406Z,244
2023-05-19T03:32:58.666Z,280
2023-05-19T03:34:14.926Z,312
2023-05-19T03:35:31.163Z,352
2023-05-19T03:36:47.412Z,388
2023-05-19T03:38:02.714Z,436
2023-05-19T03:39:18.958Z,480
2023-05-19T03:40:35.209Z,532
2023-05-19T03:41:51.470Z,592
2023-05-19T03:43:07.708Z,656
2023-05-19T03:44:23.959Z,720
2023-05-19T03:45:40.204Z,796
2023-05-19T03:46:56.666Z,876
2023-05-19T03:48:12.927Z,956
2023-05-19T03:49:29.193Z,1052
2023-05-19T03:50:45.416Z,1144
2023-05-19T03:52:01.670Z,1244
2023-05-19T03:53:17.910Z,1348
2023-05-19T03:54:34.166Z,1460
2023-05-19T03:55:49.470Z,1576
2023-05-19T03:57:05.723Z,1704
2023-05-19T03:58:21.970Z,1832
2023-05-19T03:59:38.211Z,1968
2023-05-19T04:00:54.472Z,2112
2023-05-19T04:02:10.721Z,2252
2023-05-19T04:03:21.000Z,2404
2023-05-19T04:04:43.206Z,2556
2023-05-19T04:05:59.463Z,2712
2023-05-19T04:07:15.706Z,2888
2023-05-19T04:08:31.966Z,3036
2023-05-19T04:09:42.000Z,3204
2023-05-19T04:11:04.460Z,3380
2023-05-19T04:12:19.761Z,3556
2023-05-19T04:13:36.017Z,3740
2023-05-19T04:14:52.262Z,3904
2023-05-19T04:16:08.512Z,4116
2023-05-19T04:17:24.766Z,4296
2023-05-19T04:18:41.007Z,4480
2023-05-19T04:19:57.264Z,4704
2023-05-19T04:21:07.000Z,4880
2023-05-19T04:23:46.010Z,5368
2023-05-19T04:25:02.257Z,5652
2023-05-19T04:26:18.510Z,5820
2023-05-19T04:27:34.752Z,5876
2023-05-19T04:28:50.071Z,6168
2023-05-19T04:30:06.312Z,6708
2023-05-19T04:31:22.557Z,7120
2023-05-19T04:32:38.807Z,7400
2023-05-19T04:33:55.058Z,7620
2023-05-19T04:35:11.310Z,7656
2023-05-19T04:36:27.553Z,7800
2023-05-19T04:37:43.807Z,7868
2023-05-19T04:39:00.058Z,8288
2023-05-19T04:40:16.303Z,8952
2023-05-19T04:41:32.553Z,9248
2023-05-19T04:42:48.797Z,9532
2023-05-19T04:44:05.045Z,9864
2023-05-19T04:45:20.353Z,10068
2023-05-19T04:46:36.605Z,10376
2023-05-19T04:47:52.857Z,10924
2023-05-19T04:49:09.102Z,11212
2023-05-19T04:50:25.347Z,11164
2023-05-19T04:51:41.602Z,11444
2023-05-19T04:52:52.000Z,11988
2023-05-19T04:54:14.103Z,12324
2023-05-19T04:55:30.348Z,12248
2023-05-19T04:56:41.000Z,12836
2023-05-19T04:58:02.843Z,13288
2023-05-19T04:59:19.084Z,13596
2023-05-19T05:00:29.000Z,13972
2023-05-19T05:01:50.645Z,14368
2023-05-19T05:03:06.896Z,14880
2023-05-19T05:04:23.144Z,15680
2023-05-19T05:05:39.394Z,15488
2023-05-19T05:06:55.636Z,15616
2023-05-19T05:08:11.887Z,16320
2023-05-19T05:09:28.137Z,17312
2023-05-19T05:10:44.385Z,17248
2023-05-19T05:12:00.629Z,17344
2023-05-19T05:13:16.891Z,17600
2023-05-19T05:14:33.131Z,18272
2023-05-19T05:15:49.380Z,19104
2023-05-19T05:17:05.630Z,19040
2023-05-19T05:18:21.884Z,19776
2023-05-19T05:19:31.000Z,21280
2023-05-19T05:20:53.432Z,21056
2023-05-19T05:22:09.682Z,20864
2023-05-19T05:23:25.923Z,21344
2023-05-19T05:24:42.183Z,22656
2023-05-19T05:25:58.451Z,22784
2023-05-19T05:27:14.675Z,22656
2023-05-19T05:28:30.924Z,23584
2023-05-19T05:29:47.177Z,24224
2023-05-19T05:30:57.000Z,24288
2023-05-19T05:32:19.669Z,23744
2023-05-19T05:33:35.916Z,24768
2023-05-19T05:34:52.172Z,25408
2023-05-19T05:36:08.423Z,26208
2023-05-19T05:37:24.660Z,25792
2023-05-19T05:38:39.967Z,26816
2023-05-19T05:39:50.000Z,28576
2023-05-19T05:41:12.469Z,27200
2023-05-19T05:42:28.714Z,28128
2023-05-19T05:43:44.979Z,27936
2023-05-19T05:45:01.217Z,27360
2023-05-19T05:46:11.000Z,28096
2023-05-19T05:47:33.716Z,28192
2023-05-19T05:48:49.967Z,30144
2023-05-19T05:50:06.213Z,31008
2023-05-19T05:51:22.463Z,30144
2023-05-19T05:52:38.708Z,31072
2023-05-19T05:53:54.958Z,31168
2023-05-19T05:55:10.262Z,31840
2023-05-19T05:56:26.513Z,32704
2023-05-19T05:57:42.766Z,31136
2023-05-19T05:58:59.011Z,31072
2023-05-19T06:00:15.254Z,34272
2023-05-19T06:01:31.514Z,32800
2023-05-19T06:02:47.755Z,32672
2023-05-19T06:04:04.008Z,33056
2023-05-19T06:06:36.498Z,32800
2023-05-19T06:07:52.754Z,32320
2023-05-19T06:09:09.016Z,33344
2023-05-19T06:10:25.249Z,36608
2023-05-19T06:11:40.554Z,36224
2023-05-19T06:12:56.794Z,35008
2023-05-19T06:14:13.051Z,35168
2023-05-19T06:15:29.295Z,40768
2023-05-19T06:16:39.000Z,40864
2023-05-19T06:18:01.788Z,36864
2023-05-19T06:19:18.039Z,41024
2023-05-19T06:20:34.287Z,38048
2023-05-19T06:21:50.544Z,39744
2023-05-19T06:23:06.798Z,43008
2023-05-19T06:24:23.036Z,41120
2023-05-19T06:25:39.283Z,38880
2023-05-19T06:26:55.539Z,37856
2023-05-19T06:28:10.829Z,40576
2023-05-19T06:29:27.072Z,42592
2023-05-19T06:30:43.325Z,43456
2023-05-19T06:31:59.582Z,42560
2023-05-19T06:33:15.826Z,42912
2023-05-19T06:34:32.077Z,41856
2023-05-19T06:35:48.317Z,39872
2023-05-19T06:37:04.578Z,43360
2023-05-19T06:38:20.823Z,43968
2023-05-19T06:39:31.000Z,41920
2023-05-19T06:40:53.326Z,38432
2023-05-19T06:42:09.577Z,36480
2023-05-19T06:43:25.833Z,39072
2023-05-19T06:44:41.137Z,42048
2023-05-19T06:45:57.385Z,41504
2023-05-19T06:47:13.635Z,40416
2023-05-19T06:48:29.877Z,44544
2023-05-19T06:49:46.131Z,49888
2023-05-19T06:51:02.380Z,48544
2023-05-19T06:52:18.634Z,50112
2023-05-19T06:53:34.885Z,47392
2023-05-19T06:54:51.133Z,56320
2023-05-19T06:56:07.378Z,52800
2023-05-19T06:57:23.629Z,50528
2023-05-19T06:58:39.878Z,54752
2023-05-19T06:59:56.138Z,58976
2023-05-19T07:01:12.385Z,62784
2023-05-19T07:02:22.000Z,63936
2023-05-19T07:05:00.184Z,68352
2023-05-19T07:06:16.432Z,68384
2023-05-19T07:07:32.693Z,74496
2023-05-19T07:08:48.935Z,70912
2023-05-19T07:10:05.180Z,64224
2023-05-19T07:11:21.436Z,67008
2023-05-19T07:12:37.678Z,81024
2023-05-19T07:13:53.936Z,86336
2023-05-19T07:15:10.186Z,78528
2023-05-19T07:16:26.429Z,68832
2023-05-19T07:17:42.677Z,57152
2023-05-19T07:18:57.992Z,51168
2023-05-19T07:20:14.238Z,47168
2023-05-19T07:21:30.491Z,59872
2023-05-19T07:22:46.740Z,80480
2023-05-19T07:24:02.996Z,76960
2023-05-19T07:25:19.242Z,65600
2023-05-19T07:26:35.496Z,73344
2023-05-19T07:27:51.739Z,71072
2023-05-19T07:29:07.987Z,77920
2023-05-19T07:30:24.245Z,78144
2023-05-19T07:31:40.496Z,77920
2023-05-19T07:32:56.747Z,84448
2023-05-19T07:34:13.002Z,69984
2023-05-19T07:35:29.249Z,73504
2023-05-19T07:36:44.565Z,74208
2023-05-19T07:38:00.809Z,52736
2023-05-19T07:39:17.058Z,36544
2023-05-19T07:40:33.317Z,33056
2023-05-19T07:41:49.559Z,32576
2023-05-19T07:43:05.816Z,32480
2023-05-19T07:44:22.063Z,32896
2023-05-19T07:45:38.309Z,34048
2023-05-19T07:46:54.566Z,34432
2023-05-19T07:48:10.815Z,36192
2023-05-19T07:49:27.092Z,41408
2023-05-19T07:50:43.311Z,46272
2023-05-19T07:51:59.567Z,47072
2023-05-19T07:53:15.807Z,54080
2023-05-19T07:54:31.118Z,51840
2023-05-19T07:55:47.370Z,48640
2023-05-19T07:57:03.621Z,50240
2023-05-19T07:58:19.867Z,52992
2023-05-19T07:59:36.117Z,57152
2023-05-19T08:00:52.360Z,45952
2023-05-19T08:02:08.618Z,41440
2023-05-19T08:03:24.871Z,42784
2023-05-19T08:04:41.126Z,44832
2023-05-19T08:05:57.364Z,45568
2023-05-19T08:07:13.618Z,47296
2023-05-19T08:08:29.881Z,59424
2023-05-19T08:09:46.121Z,69952
2023-05-19T08:11:02.367Z,70688
2023-05-19T08:12:18.618Z,68384
2023-05-19T08:13:33.918Z,65408
2023-05-19T08:14:50.164Z,56288
2023-05-19T08:16:06.420Z,59552
2023-05-19T08:17:22.662Z,59552
2023-05-19T08:18:38.912Z,61056
2023-05-19T08:19:55.168Z,68256
2023-05-19T08:21:11.419Z,74016
2023-05-19T08:22:27.659Z,69376
2023-05-19T08:23:43.918Z,70752
2023-05-19T08:25:00.170Z,68160
2023-05-19T08:26:16.409Z,65088
2023-05-19T08:27:32.664Z,65984
2023-05-19T08:28:48.934Z,66048
2023-05-19T08:30:05.171Z,62752
2023-05-19T08:31:20.462Z,65312
2023-05-19T08:32:36.715Z,69056
2023-05-19T08:33:52.962Z,78656
2023-05-19T08:35:09.217Z,78464
2023-05-19T08:36:25.462Z,69664
2023-05-19T08:37:41.722Z,70592
2023-05-19T08:40:14.208Z,79520
2023-05-19T08:41:30.473Z,85152
2023-05-19T08:42:46.713Z,80768
2023-05-19T08:44:02.965Z,75104
2023-05-19T08:45:19.211Z,75648
2023-05-19T08:46:35.470Z,63968
2023-05-19T08:47:50.756Z,64480
2023-05-19T08:49:07.008Z,59264
2023-05-19T08:50:23.261Z,57664
2023-05-19T08:51:39.513Z,60000
2023-05-19T08:52:55.764Z,71072
2023-05-19T08:54:12.009Z,79104
2023-05-19T08:55:28.266Z,86944
2023-05-19T08:56:44.511Z,76256
2023-05-19T08:58:00.770Z,68576
2023-05-19T08:59:17.015Z,67968
2023-05-19T09:00:33.266Z,63168
2023-05-19T09:01:49.522Z,65632
2023-05-19T09:03:05.768Z,69376
2023-05-19T09:04:21.060Z,72672
2023-05-19T09:05:37.320Z,72480
2023-05-19T09:08:09.817Z,74336
2023-05-19T09:09:26.063Z,83424
2023-05-19T09:10:42.317Z,58688
2023-05-19T09:11:58.571Z,74976
2023-05-19T09:13:14.816Z,92256
2023-05-19T09:14:31.070Z,91296
2023-05-19T09:15:47.331Z,87776
2023-05-19T09:17:03.566Z,94496
2023-05-19T09:18:19.823Z,95168
2023-05-19T09:19:36.068Z,92800
2023-05-19T09:20:52.324Z,88288
2023-05-19T09:22:07.620Z,82080
2023-05-19T09:23:23.864Z,80480
2023-05-19T09:24:40.120Z,80448
2023-05-19T09:25:56.371Z,85216
2023-05-19T09:27:12.616Z,90656
2023-05-19T09:28:28.875Z,85312
2023-05-19T09:29:45.130Z,79104
2023-05-19T09:32:17.626Z,77280
2023-05-19T09:33:33.873Z,87200
2023-05-19T09:34:50.127Z,88832
2023-05-19T09:36:06.369Z,94848
2023-05-19T09:37:22.625Z,90112
2023-05-19T09:38:37.941Z,87488
2023-05-19T09:39:54.193Z,88672
2023-05-19T09:41:10.429Z,89952
2023-05-19T09:42:26.681Z,91680
2023-05-19T09:43:42.934Z,97312
2023-05-19T09:44:53.000Z,102720
2023-05-19T09:46:15.432Z,94752
2023-05-19T09:47:31.686Z,93216
2023-05-19T09:48:47.925Z,94496
2023-05-19T09:49:58.000Z,108992
2023-05-19T09:51:20.441Z,122176
2023-05-19T09:52:31.000Z,100160
2023-05-19T09:53:52.924Z,74400
2023-05-19T09:55:09.210Z,54176
2023-05-19T09:56:24.489Z,63328
2023-05-19T09:57:40.727Z,47392
2023-05-19T09:58:56.977Z,46944
2023-05-19T10:00:13.224Z,94432
2023-05-19T10:01:29.475Z,39104
2023-05-19T10:02:45.729Z,95552
2023-05-19T10:05:18.227Z,40000
2023-05-19T10:06:34.473Z,128224
2023-05-19T10:07:50.724Z,125056
2023-05-19T10:10:23.234Z,103808
2023-05-19T10:11:39.477Z,118464
2023-05-19T10:12:54.784Z,36064
2023-05-19T10:14:11.037Z,103616
2023-05-19T10:15:27.284Z,113024
2023-05-19T10:16:43.545Z,90336
2023-05-19T10:17:59.784Z,27296
2023-05-19T10:19:16.039Z,25920
2023-05-19T10:20:32.282Z,38464
2023-05-19T10:21:48.540Z,124576
2023-05-19T10:23:04.779Z,121504
2023-05-19T10:24:21.030Z,117120
2023-05-19T10:25:37.285Z,118592
2023-05-19T10:26:53.537Z,111968
2023-05-19T10:28:09.782Z,31520
2023-05-19T10:29:25.086Z,127424
2023-05-19T10:30:41.335Z,118304
2023-05-19T10:31:57.586Z,31488
2023-05-19T10:33:13.839Z,31008
2023-05-19T10:34:30.086Z,109824
2023-05-19T10:35:46.336Z,103008
2023-05-19T10:37:02.582Z,120288
2023-05-19T10:38:18.835Z,126720
2023-05-19T10:39:35.091Z,134496
2023-05-19T10:40:51.334Z,138912
2023-05-19T10:43:23.830Z,32800
2023-05-19T10:45:56.334Z,145088
2023-05-19T10:48:27.887Z,144832
2023-05-19T10:49:43.228Z,36704
2023-05-19T10:50:58.526Z,150016
2023-05-19T10:52:14.774Z,150944
2023-05-19T10:53:31.030Z,148576
2023-05-19T10:54:47.301Z,149216
2023-05-19T10:56:03.529Z,39648
2023-05-19T10:57:19.771Z,31424
2023-05-19T10:58:36.024Z,31584
2023-05-19T10:59:52.284Z,78944
2023-05-19T11:02:24.779Z,30496
2023-05-19T11:03:41.030Z,37376
2023-05-19T11:04:51.000Z,54944
2023-05-19T11:06:13.560Z,155904
2023-05-19T11:07:28.855Z,183104
2023-05-19T11:08:45.104Z,192448
2023-05-19T11:10:01.370Z,172672
2023-05-19T11:11:17.654Z,164896
2023-05-19T11:12:33.852Z,101184
2023-05-19T11:13:50.111Z,151296
2023-05-19T11:15:06.359Z,161792
2023-05-19T11:16:21.689Z,117120
2023-05-19T11:17:36.997Z,161824
2023-05-19T11:18:53.248Z,141504
2023-05-19T11:20:03.000Z,129792
2023-05-19T11:21:25.765Z,138624
2023-05-19T11:22:41.996Z,146624
2023-05-19T11:23:58.243Z,145536
2023-05-19T11:25:14.488Z,144704
2023-05-19T11:26:30.744Z,141568
2023-05-19T11:27:41.000Z,142048
2023-05-19T11:29:03.240Z,146432
2023-05-19T11:30:19.488Z,151424
2023-05-19T11:31:35.736Z,152480
2023-05-19T11:32:51.985Z,145920
2023-05-19T11:34:07.300Z,145120
2023-05-19T11:35:17.000Z,146976
2023-05-19T11:36:39.798Z,149312
2023-05-19T11:37:56.043Z,149088
2023-05-19T11:39:06.000Z,153344
2023-05-19T11:40:28.543Z,169184
2023-05-19T11:41:44.787Z,178592
2023-05-19T11:43:01.045Z,172736
2023-05-19T11:44:17.292Z,158496
2023-05-19T11:45:33.546Z,173504
2023-05-19T11:46:49.794Z,188224
2023-05-19T11:48:06.043Z,190720
2023-05-19T11:49:22.292Z,180960
2023-05-19T11:50:37.594Z,180480
2023-05-19T11:51:52.915Z,168000
2023-05-19T11:53:09.159Z,161792
2023-05-19T11:54:25.416Z,147712
2023-05-19T11:55:41.669Z,135456
2023-05-19T11:56:57.910Z,136064
2023-05-19T11:59:30.408Z,136128
2023-05-19T12:00:46.673Z,131520
2023-05-19T12:02:02.907Z,130208
2023-05-19T12:03:19.175Z,134848
2023-05-19T12:04:35.407Z,138592
2023-05-19T12:05:51.664Z,135840
2023-05-19T12:07:07.916Z,127680
2023-05-19T12:08:23.210Z,123456
2023-05-19T12:09:39.469Z,122688
2023-05-19T12:10:55.715Z,119008
2023-05-19T12:12:11.974Z,118816
2023-05-19T12:13:28.216Z,118112
2023-05-19T12:14:44.462Z,112448
2023-05-19T12:16:00.721Z,110208
2023-05-19T12:18:33.215Z,127616
2023-05-19T12:19:49.461Z,130528
2023-05-19T12:21:05.721Z,130688
2023-05-19T12:22:21.965Z,130304
2023-05-19T12:23:38.220Z,139328
2023-05-19T12:24:53.520Z,141152
2023-05-19T12:26:09.771Z,137184
2023-05-19T12:27:26.041Z,138784
2023-05-19T12:28:42.275Z,162592
2023-05-19T12:29:58.525Z,186688
2023-05-19T12:31:14.768Z,208640
2023-05-19T12:32:31.023Z,172928
2023-05-19T12:33:47.268Z,136768
2023-05-19T12:35:03.519Z,127456
2023-05-19T12:36:14.000Z,129664
2023-05-19T12:37:36.026Z,123488
2023-05-19T12:38:46.000Z,117952
2023-05-19T12:40:08.520Z,111840
2023-05-19T12:41:23.829Z,111040
2023-05-19T12:42:40.074Z,112128
2023-05-19T12:43:56.335Z,116288
2023-05-19T12:45:12.572Z,121632
2023-05-19T12:46:28.825Z,129792
2023-05-19T12:47:45.076Z,128672
2023-05-19T12:49:01.320Z,60544
2023-05-19T12:50:17.574Z,124800
2023-05-19T12:51:33.821Z,124704
2023-05-19T12:52:50.074Z,120864
2023-05-19T12:54:06.325Z,34720
2023-05-19T12:55:22.582Z,48416
2023-05-19T12:56:38.830Z,120704
2023-05-19T12:57:54.129Z,138400
2023-05-19T12:59:10.377Z,155968
2023-05-19T13:00:26.632Z,162464
2023-05-19T13:01:42.870Z,148864
2023-05-19T13:02:59.128Z,141728
2023-05-19T13:04:15.377Z,137600
2023-05-19T13:05:31.662Z,138048
2023-05-19T13:06:47.883Z,144320
2023-05-19T13:08:04.127Z,144864
2023-05-19T13:09:20.377Z,142016
2023-05-19T13:10:36.621Z,142240
2023-05-19T13:11:52.882Z,137888
2023-05-19T13:13:09.127Z,131360
2023-05-19T13:14:18.000Z,130560
2023-05-19T13:15:40.668Z,124736
2023-05-19T13:16:56.921Z,93408
2023-05-19T13:18:13.171Z,60832
2023-05-19T13:19:29.429Z,84128
2023-05-19T13:20:45.677Z,141984
2023-05-19T13:22:01.926Z,46976
2023-05-19T13:23:18.184Z,41792
2023-05-19T13:24:34.424Z,121856
2023-05-19T13:25:50.667Z,119072
2023-05-19T13:27:06.917Z,44672
2023-05-19T13:28:23.171Z,44864
2023-05-19T13:29:39.423Z,72832
2023-05-19T13:30:54.723Z,64544
2023-05-19T13:32:10.977Z,53632
2023-05-19T13:33:27.239Z,54432
2023-05-19T13:34:43.485Z,55808
2023-05-19T13:35:59.723Z,47840
2023-05-19T13:37:15.971Z,52640
2023-05-19T13:38:32.226Z,109376
2023-05-19T13:39:48.482Z,59296
2023-05-19T13:41:04.725Z,68288
2023-05-19T13:42:20.976Z,67200
2023-05-19T13:43:37.228Z,82720
2023-05-19T13:44:53.476Z,95520
2023-05-19T13:46:09.736Z,55648
2023-05-19T13:47:25.035Z,71040
2023-05-19T13:48:41.282Z,68768
2023-05-19T13:49:57.539Z,50944
2023-05-19T13:51:08.000Z,52288
2023-05-19T13:52:24.000Z,51520
2023-05-19T13:53:46.279Z,55232
2023-05-19T13:55:02.529Z,48704
2023-05-19T13:56:18.782Z,49632
2023-05-19T13:57:35.034Z,59808
2023-05-19T13:58:51.284Z,66464
2023-05-19T14:00:07.534Z,49152
2023-05-19T14:01:18.000Z,50240
2023-05-19T14:02:40.030Z,56576
2023-05-19T14:03:55.333Z,75360
2023-05-19T14:05:11.581Z,54944
2023-05-19T14:06:27.836Z,56544
2023-05-19T14:07:44.080Z,61120
2023-05-19T14:09:00.328Z,53760
2023-05-19T14:10:16.587Z,87712
2023-05-19T14:11:32.827Z,93312
2023-05-19T14:12:49.083Z,94912
2023-05-19T14:14:05.327Z,62624
2023-05-19T14:16:37.830Z,80192
2023-05-19T14:17:54.084Z,80480
2023-05-19T14:19:04.000Z,80576
2023-05-19T14:20:25.636Z,73216
2023-05-19T14:21:41.884Z,88480
2023-05-19T14:22:58.144Z,102240
2023-05-19T14:24:08.000Z,98656
2023-05-19T14:25:30.639Z,92672
2023-05-19T14:26:46.893Z,73568
2023-05-19T14:28:03.140Z,89888
2023-05-19T14:29:19.389Z,91008
2023-05-19T14:30:35.633Z,97120
2023-05-19T14:31:51.882Z,93600
2023-05-19T14:33:08.135Z,81728
2023-05-19T14:34:24.384Z,79232
2023-05-19T14:35:34.000Z,55232
2023-05-19T14:36:55.941Z,43328
2023-05-19T14:38:12.199Z,41376
2023-05-19T14:39:28.444Z,40224
2023-05-19T14:40:44.695Z,40320
2023-05-19T14:42:00.946Z,41152
2023-05-19T14:43:17.199Z,45664
2023-05-19T14:44:33.444Z,47648
2023-05-19T14:45:49.698Z,64736
2023-05-19T14:47:05.951Z,83904
2023-05-19T14:48:22.190Z,83776
2023-05-19T14:49:38.445Z,68352
2023-05-19T14:50:54.700Z,53280
2023-05-19T14:52:10.942Z,50816
2023-05-19T14:53:26.259Z,61280
2023-05-19T14:54:42.504Z,35200
2023-05-19T14:55:58.757Z,33728
2023-05-19T14:57:14.998Z,47040
2023-05-19T14:58:31.248Z,33664
2023-05-19T14:59:47.495Z,32832
2023-05-19T15:01:03.757Z,34560
2023-05-19T15:02:20.003Z,37280
2023-05-19T15:03:36.255Z,40448
2023-05-19T15:04:52.526Z,43040
2023-05-19T15:06:08.754Z,44928
2023-05-19T15:07:25.015Z,48704
2023-05-19T15:09:57.536Z,42976
2023-05-19T15:11:12.838Z,43712
2023-05-19T15:12:29.099Z,40224
2023-05-19T15:13:45.346Z,53728
2023-05-19T15:15:01.590Z,24480
2023-05-19T15:16:17.838Z,21504
2023-05-19T15:17:34.091Z,21440
2023-05-19T15:18:50.340Z,21088
2023-05-19T15:20:06.586Z,21216
2023-05-19T15:21:22.841Z,21664
2023-05-19T15:22:39.094Z,22016
2023-05-19T15:23:55.342Z,22272
2023-05-19T15:25:11.598Z,22400
2023-05-19T15:26:27.842Z,22496
2023-05-19T15:27:37.000Z,22880
2023-05-19T15:28:59.397Z,23424
2023-05-19T15:30:15.648Z,23616
2023-05-19T15:31:31.891Z,23936
2023-05-19T15:32:48.151Z,24480
2023-05-19T15:34:04.396Z,25440
2023-05-19T15:35:20.638Z,26784
2023-05-19T15:36:36.898Z,28320
2023-05-19T15:37:53.141Z,30048
2023-05-19T15:39:09.390Z,31072
2023-05-19T15:40:25.642Z,29984
2023-05-19T15:41:41.890Z,27776
2023-05-19T15:42:58.145Z,26656
2023-05-19T15:44:13.450Z,26208
2023-05-19T15:45:29.713Z,26464
2023-05-19T15:46:45.948Z,26816
2023-05-19T15:48:02.206Z,27008
2023-05-19T15:49:18.440Z,26816
2023-05-19T15:50:34.696Z,26560
2023-05-19T15:51:50.943Z,26592
2023-05-19T15:53:07.192Z,26304
2023-05-19T15:54:23.446Z,24960
2023-05-19T15:55:39.696Z,23424
2023-05-19T15:56:55.951Z,22464
2023-05-19T15:58:12.193Z,22816
2023-05-19T15:59:28.441Z,23520
2023-05-19T16:00:43.747Z,23968
2023-05-19T16:02:00.017Z,24160
2023-05-19T16:03:16.243Z,24608
2023-05-19T16:04:32.497Z,26240
2023-05-19T16:05:42.000Z,27168
2023-05-19T16:07:04.068Z,27040
2023-05-19T16:08:20.318Z,27744
2023-05-19T16:09:36.564Z,28480
2023-05-19T16:10:52.811Z,36192
2023-05-19T16:12:03.000Z,24608
2023-05-19T16:13:25.305Z,19840
2023-05-19T16:14:41.554Z,18304
2023-05-19T16:15:57.798Z,17344
2023-05-19T16:17:14.044Z,16800
2023-05-19T16:18:30.291Z,16512
2023-05-19T16:19:46.547Z,16352
2023-05-19T16:21:02.800Z,16096
2023-05-19T16:23:35.290Z,15904
2023-05-19T16:24:50.596Z,15016
2023-05-19T16:26:06.847Z,14844
2023-05-19T16:27:23.091Z,15292
2023-05-19T16:28:39.331Z,16320
2023-05-19T16:29:55.587Z,16928
2023-05-19T16:31:11.836Z,16896
2023-05-19T16:32:28.082Z,15872
2023-05-19T16:33:44.334Z,14928
2023-05-19T16:35:00.573Z,12956
2023-05-19T16:36:16.818Z,11736
2023-05-19T16:37:33.070Z,10776
2023-05-19T16:38:43.000Z,9868
2023-05-19T16:40:05.576Z,9048
2023-05-19T16:41:20.867Z,8368
2023-05-19T16:42:37.130Z,7800
2023-05-19T16:43:47.000Z,7248
2023-05-19T16:45:09.616Z,6784
2023-05-19T16:46:25.856Z,6380
2023-05-19T16:47:42.114Z,6136
2023-05-19T16:48:58.360Z,6208
2023-05-19T16:50:14.613Z,6476
2023-05-19T16:51:30.857Z,6776
2023-05-19T16:52:47.106Z,7060
2023-05-19T16:54:03.351Z,7396
2023-05-19T16:55:19.598Z,7804
2023-05-19T16:56:35.850Z,8212
2023-05-19T16:57:51.148Z,8460
2023-05-19T16:59:07.399Z,8528
2023-05-19T17:00:23.647Z,8660
2023-05-19T17:01:39.894Z,9044
2023-05-19T17:02:56.142Z,9548
2023-05-19T17:04:12.386Z,9936
2023-05-19T17:05:28.639Z,10360
2023-05-19T17:06:44.891Z,10616